All
Baradine Airport (Baradine, New South Wales) YBAD Weather
There is no TAF data available at YBAD. Showing TAF data for YCBB (28 mi S).
COJ Terminal Area Forecast (no data for YBAD)
| Date | Time (AEST) | Flight Rules | Wind Dir. | Speed | Type | Height AGL (ft) | Visibility | Remarks | ||||||
|---|---|---|---|---|---|---|---|---|---|---|---|---|---|---|
There is no METAR data available at YBAD. Showing METAR data for YCBB (28 mi S).
Recent COJ METAR history (no data for YBAD)
| Date | Time (AEST) | Flight Rules | Wind Dir. | Speed | Type | Height AGL (ft) | Visibility | Temp (°C) | Temp (°F) | Dew Point (°C) | Dew Point (°F) | Rel. Humid. | Pressure | Density Altitude | Remarks |
|---|---|---|---|---|---|---|---|---|---|---|---|---|---|---|---|
| 06-May | 03:00AM | VFR | 210° | 8 kt | 10000 meters | 9° | 48° | 6° | 42° | 81% | 1020 mb | 1,672 ft | |||
| 06-May | 02:00AM | VFR | 220° | 7 kt | 10000 meters | 9° | 48° | 6° | 42° | 81% | 1020 mb | 1,672 ft | |||
| 06-May | 01:00AM | VFR | 210° | 7 kt | 10000 meters | 10° | 50° | 6° | 42° | 76% | 1021 mb | 1,762 ft | |||
| 06-May | 12:00AM | VFR | 200° | 7 kt | 10000 meters | 10° | 50° | 6° | 42° | 76% | 1021 mb | 1,762 ft | |||
| 05-May | 11:00PM | VFR | 190° | 9 kt | 10000 meters | 10° | 50° | 6° | 42° | 76% | 1021 mb | 1,762 ft | |||
| 05-May | 10:00PM | VFR | 190° | 8 kt | 10000 meters | 11° | 51° | 6° | 42° | 71% | 1022 mb | 1,853 ft | |||
| 05-May | 09:00PM | VFR | 210° | 8 kt | 10000 meters | 12° | 53° | 5° | 41° | 62% | 1022 mb | 1,973 ft | |||
| 05-May | 08:00PM | VFR | 190° | 8 kt | 10000 meters | 12° | 53° | 5° | 41° | 62% | 1021 mb | 2,002 ft | |||
| 05-May | 07:00PM | VFR | 190° | 7 kt | 10000 meters | 13° | 55° | 5° | 41° | 58% | 1021 mb | 2,122 ft | |||
| 05-May | 06:00PM | VFR | 200° | 4 kt | 10000 meters | 14° | 57° | 5° | 41° | 55% | 1020 mb | 2,272 ft | |||
| 05-May | 05:00PM | VFR | 200° | 6 kt | 10000 meters | 16° | 60° | 4° | 39° | 45% | 1020 mb | 2,512 ft | |||
| 05-May | 04:00PM | VFR | 210° | 9 kt | 10000 meters | 17° | 62° | 5° | 41° | 45% | 1019 mb | 2,661 ft | |||
| 05-May | 03:00PM | VFR | 180° | 8 kt | 10000 meters | 18° | 64° | 6° | 42° | 45% | 1019 mb | 2,781 ft | |||
| 05-May | 02:00PM | VFR | 180° | 10 kt | 10000 meters | 17° | 62° | 6° | 42° | 48% | 1019 mb | 2,661 ft | |||
| 05-May | 01:00PM | VFR | 170° | 12 kt | 10000 meters | 16° | 60° | 5° | 41° | 48% | 1020 mb | 2,512 ft | |||
| 05-May | 12:00PM | VFR | 170° | 9 kt | 10000 meters | 15° | 59° | 5° | 41° | 51% | 1021 mb | 2,362 ft | |||
| 05-May | 11:00AM | VFR | 180° | 10 kt | 10000 meters | 14° | 57° | 6° | 42° | 58% | 1021 mb | 2,242 ft | |||
| 05-May | 10:00AM | VFR | 170° | 11 kt | 10000 meters | 13° | 55° | 8° | 46° | 72% | 1021 mb | 2,122 ft | |||
| 05-May | 09:00AM | VFR | 190° | 9 kt | 10000 meters | 13° | 55° | 9° | 48° | 77% | 1021 mb | 2,122 ft | |||
| 05-May | 08:00AM | VFR | 200° | 5 kt | 10000 meters | 12° | 53° | 9° | 48° | 82% | 1021 mb | 2,002 ft | |||
| 05-May | 07:00AM | VFR | 200° | 5 kt | Broken |
4,900 |
10000 meters | 11° | 51° | 9° | 48° | 87% | 1020 mb | 1,912 ft | |
| 05-May | 06:00AM | VFR | 190° | 8 kt | 10000 meters | 11° | 51° | 9° | 48° | 87% | 1019 mb | 1,941 ft | |||
| 05-May | 05:00AM | VFR | 200° | 8 kt | Scattered |
4,700 |
10000 meters | 11° | 51° | 10° | 50° | 94% | 1019 mb | 1,941 ft | |
| 05-May | 04:00AM | VFR | 200° | 9 kt | Broken |
5,100 |
10000 meters | 12° | 53° | 11° | 51° | 94% | 1019 mb | 2,061 ft |
Login
| Your browser is unsupported. upgrade your browser |
